Time;durP1;ratioP1;P1;durP2;ratioP2;P2;SDS_P1;SDS_P2;PMS_P1;PMS_P2;Temp;Humidity;BMP_temperature;BMP_pressure;BME280_temperature;BME280_humidity;BME280_pressure;Samples;Min_cycle;Max_cycle;Signal;HPM_P1;HPM_P2
2023/05/30 00:01:20;;;;;;;8.60;4.00;;;;;;;14.91;55.65;100741.88;220679;1235;61253;-73
2023/05/30 00:06:13;;;;;;;6.10;3.40;;;;;;;14.86;55.75;100742.40;220730;1236;61372;-73
2023/05/30 00:11:04;;;;;;;6.40;3.80;;;;;;;14.79;56.14;100745.89;220958;1234;61367;-73
2023/05/30 00:15:57;;;;;;;7.70;4.10;;;;;;;14.74;55.61;100746.24;220838;1236;61504;-73
2023/05/30 00:20:51;;;;;;;5.90;3.00;;;;;;;14.73;56.25;100745.02;220804;1235;61278;-73
2023/05/30 00:25:44;;;;;;;5.40;3.20;;;;;;;14.69;56.11;100745.88;220747;1235;61401;-73
2023/05/30 00:30:36;;;;;;;9.70;3.70;;;;;;;14.67;56.11;100743.79;220795;1236;61354;-73
2023/05/30 00:35:27;;;;;;;5.70;2.90;;;;;;;14.63;55.76;100741.89;220817;1235;61309;-73
2023/05/30 00:40:19;;;;;;;4.30;3.20;;;;;;;14.57;55.57;100740.10;220806;1234;61322;-73
2023/05/30 00:45:11;;;;;;;8.50;3.00;;;;;;;14.51;55.92;100741.48;220855;1235;61690;-73
2023/05/30 00:50:04;;;;;;;6.40;3.20;;;;;;;14.47;56.32;100734.49;220732;1237;61287;-73
2023/05/30 00:55:01;;;;;;;4.10;2.40;;;;;;;14.43;56.37;100737.98;220656;1239;73952;-73
2023/05/30 00:59:53;;;;;;;3.40;2.00;;;;;;;14.37;56.53;100739.88;220801;1235;71271;-73
2023/05/30 01:04:48;;;;;;;6.30;2.40;;;;;;;14.30;55.63;100738.48;220794;1239;61263;-73
2023/05/30 01:09:40;;;;;;;5.90;2.80;;;;;;;14.25;55.41;100736.71;220831;1235;65501;-73
2023/05/30 01:14:40;;;;;;;7.70;2.60;;;;;;;14.14;55.58;100738.78;220743;1236;61253;-73
2023/05/30 01:19:47;;;;;;;5.90;2.90;;;;;;;14.00;56.12;100746.05;220775;1235;73632;-73
2023/05/30 01:24:45;;;;;;;4.50;2.30;;;;;;;13.93;56.25;100749.18;220828;1236;71879;-73
2023/05/30 01:29:38;;;;;;;4.00;2.80;;;;;;;13.88;56.47;100745.16;220755;1236;61270;-73
2023/05/30 01:34:30;;;;;;;3.80;2.80;;;;;;;13.80;56.60;100746.16;220895;1235;66932;-73
2023/05/30 01:39:22;;;;;;;3.60;2.50;;;;;;;13.76;57.34;100752.07;220802;1238;61397;-73
2023/05/30 01:44:31;;;;;;;6.20;2.60;;;;;;;13.75;57.56;100754.70;220810;1239;61407;-73
2023/05/30 01:49:33;;;;;;;5.10;2.50;;;;;;;13.73;57.66;100755.20;220785;1235;61365;-74
2023/05/30 01:54:27;;;;;;;5.50;2.60;;;;;;;13.75;57.83;100758.52;220755;1235;73559;-74
2023/05/30 01:59:20;;;;;;;7.00;2.80;;;;;;;13.78;56.85;100758.19;220610;1239;72251;-73
2023/05/30 02:04:12;;;;;;;4.10;2.40;;;;;;;13.83;55.99;100756.29;220893;1239;61339;-73
2023/05/30 02:09:04;;;;;;;2.90;2.30;;;;;;;13.82;55.56;100761.69;221029;1235;61288;-73
2023/05/30 02:13:57;;;;;;;5.10;2.20;;;;;;;13.80;55.35;100764.11;220848;1235;61237;-73
2023/05/30 02:18:49;;;;;;;6.50;2.20;;;;;;;13.73;55.03;100768.27;221023;1235;65707;-73
2023/05/30 02:23:42;;;;;;;5.40;2.10;;;;;;;13.68;54.91;100774.69;221020;1239;61220;-73
2023/05/30 02:28:33;;;;;;;7.30;3.00;;;;;;;13.64;54.79;100783.20;221056;1235;61343;-73
2023/05/30 02:33:25;;;;;;;5.80;3.10;;;;;;;13.59;54.76;100783.16;220862;1236;61252;-73
2023/05/30 02:38:17;;;;;;;3.90;2.80;;;;;;;13.55;54.67;100778.79;221064;1239;73529;-74
2023/05/30 02:43:09;;;;;;;4.40;2.40;;;;;;;13.53;54.43;100780.68;220950;1239;61352;-73
2023/05/30 02:48:11;;;;;;;4.30;1.80;;;;;;;13.56;54.59;100781.92;220997;1235;61242;-74
2023/05/30 02:53:04;;;;;;;3.60;2.00;;;;;;;13.57;54.14;100784.90;220845;1238;61244;-74
2023/05/30 02:57:55;;;;;;;4.50;2.30;;;;;;;13.60;54.12;100784.38;221080;1239;61397;-74
2023/05/30 03:03:02;;;;;;;4.10;2.00;;;;;;;13.61;53.93;100787.70;221089;1237;74674;-74
2023/05/30 03:07:54;;;;;;;3.40;1.90;;;;;;;13.62;53.70;100789.45;221087;1235;61253;-74
2023/05/30 03:12:45;;;;;;;6.70;2.40;;;;;;;13.62;53.73;100797.64;221059;1236;61411;-72
2023/05/30 03:17:38;;;;;;;7.10;2.50;;;;;;;13.62;53.66;100801.64;220841;1235;72095;-73
2023/05/30 03:22:30;;;;;;;7.90;2.40;;;;;;;13.70;53.61;100801.35;221048;1236;61303;-73
2023/05/30 03:27:22;;;;;;;4.80;2.40;;;;;;;13.77;53.16;100797.71;220846;1235;61315;-73
2023/05/30 03:32:13;;;;;;;6.30;2.40;;;;;;;13.93;53.07;100806.69;221122;1239;61256;-73
2023/05/30 03:37:06;;;;;;;4.80;2.20;;;;;;;14.28;52.57;100817.98;220804;1235;67885;-73
2023/05/30 03:41:57;;;;;;;4.50;2.40;;;;;;;14.24;52.43;100817.45;221089;1235;61650;-73
2023/05/30 03:46:49;;;;;;;6.90;2.30;;;;;;;14.20;52.36;100816.04;221055;1236;61262;-73
2023/05/30 03:51:41;;;;;;;3.90;2.40;;;;;;;14.22;52.37;100820.39;221007;1238;61314;-73
2023/05/30 03:56:33;;;;;;;7.40;2.30;;;;;;;14.06;52.62;100821.73;220834;1237;61509;-73
2023/05/30 04:01:24;;;;;;;3.90;2.70;;;;;;;13.90;52.71;100816.08;221073;1237;61341;-73
2023/05/30 04:06:17;;;;;;;6.20;2.40;;;;;;;13.83;52.81;100829.98;220919;1235;74800;-73
2023/05/30 04:11:08;;;;;;;5.40;2.50;;;;;;;13.79;52.93;100833.62;221093;1235;61314;-73
2023/05/30 04:16:00;;;;;;;5.80;2.20;;;;;;;13.75;53.41;100839.17;220905;1237;61409;-73
2023/05/30 04:20:52;;;;;;;3.90;2.20;;;;;;;13.71;53.29;100846.81;220820;1235;61237;-72
2023/05/30 04:25:44;;;;;;;5.60;2.40;;;;;;;13.73;53.53;100851.88;221051;1239;61278;-73
2023/05/30 04:30:35;;;;;;;7.00;2.30;;;;;;;13.75;53.49;100855.02;221032;1235;61279;-73
2023/05/30 04:35:27;;;;;;;6.20;2.50;;;;;;;13.78;53.65;100859.56;221103;1235;61243;-72
2023/05/30 04:40:23;;;;;;;8.30;2.80;;;;;;;13.82;53.73;100860.30;221102;1239;65671;-73
2023/05/30 04:45:16;;;;;;;6.80;2.20;;;;;;;13.85;53.74;100863.97;221113;1235;61349;-73
2023/05/30 04:50:09;;;;;;;7.70;2.10;;;;;;;13.89;53.78;100865.73;221078;1239;61809;-73
2023/05/30 04:55:01;;;;;;;6.60;2.90;;;;;;;13.96;53.71;100865.42;221010;1239;61261;-73
2023/05/30 04:59:53;;;;;;;4.70;2.40;;;;;;;14.04;53.72;100866.86;220989;1238;61346;-72
2023/05/30 05:04:45;;;;;;;6.60;3.20;;;;;;;14.14;53.71;100868.30;220740;1239;73113;-73
2023/05/30 05:09:36;;;;;;;6.60;2.20;;;;;;;14.27;53.68;100868.71;220930;1235;61239;-72
2023/05/30 05:14:28;;;;;;;6.20;2.90;;;;;;;14.42;53.29;100872.95;220999;1239;61241;-72
2023/05/30 05:19:19;;;;;;;5.30;2.10;;;;;;;14.56;53.26;100879.30;221655;1237;61371;-72
2023/05/30 05:24:11;;;;;;;9.20;2.70;;;;;;;14.70;53.18;100884.24;220925;1239;61352;-72
2023/05/30 05:29:03;;;;;;;4.00;2.40;;;;;;;14.80;53.03;100883.21;220935;1236;61357;-73
2023/05/30 05:33:54;;;;;;;7.80;2.10;;;;;;;14.92;52.96;100883.94;220876;1235;67782;-72
2023/05/30 05:38:46;;;;;;;5.50;2.30;;;;;;;15.10;53.30;100889.55;220844;1236;61341;-73
2023/05/30 05:43:37;;;;;;;7.80;2.40;;;;;;;15.30;52.72;100892.88;220921;1236;61242;-73
2023/05/30 05:48:29;;;;;;;6.30;2.60;;;;;;;15.58;52.20;100898.98;220923;1237;61234;-73
2023/05/30 05:53:21;;;;;;;4.50;2.30;;;;;;;15.76;51.92;100903.36;220608;1239;61213;-72
2023/05/30 05:58:13;;;;;;;8.90;2.40;;;;;;;15.82;51.76;100900.91;220662;1235;61246;-73
2023/05/30 06:03:05;;;;;;;4.90;2.10;;;;;;;15.92;51.59;100903.69;220851;1238;74639;-73
2023/05/30 06:07:59;;;;;;;6.90;2.90;;;;;;;15.99;51.14;100902.63;220744;1236;73280;-73
2023/05/30 06:12:51;;;;;;;4.80;2.10;;;;;;;16.05;50.94;100904.88;220903;1234;62041;-73
2023/05/30 06:17:43;;;;;;;6.70;2.30;;;;;;;16.13;50.87;100908.00;220859;1235;61237;-72
2023/05/30 06:22:34;;;;;;;5.10;2.70;;;;;;;16.32;50.41;100906.38;220892;1238;61313;-72
2023/05/30 06:27:26;;;;;;;4.50;2.00;;;;;;;16.55;49.68;100908.21;220659;1235;61793;-72
2023/05/30 06:32:17;;;;;;;7.10;2.50;;;;;;;16.84;49.42;100909.30;220864;1239;61263;-72
2023/05/30 06:37:10;;;;;;;10.40;2.80;;;;;;;17.01;49.20;100916.21;220810;1235;68217;-73
2023/05/30 06:42:02;;;;;;;5.20;2.60;;;;;;;17.44;48.60;100917.66;220902;1235;61361;-72
2023/05/30 06:47:01;;;;;;;3.10;1.90;;;;;;;17.80;47.61;100919.96;220941;1236;75334;-72
2023/05/30 06:51:52;;;;;;;7.00;2.30;;;;;;;18.04;46.97;100919.75;220789;1235;61243;-72
2023/05/30 06:56:44;;;;;;;16.00;3.00;;;;;;;18.25;46.50;100921.45;220704;1236;61337;-73
2023/05/30 07:01:36;;;;;;;7.10;2.40;;;;;;;18.59;45.91;100923.67;220871;1237;73359;-72
2023/05/30 07:06:28;;;;;;;7.80;2.80;;;;;;;18.76;44.96;100925.56;220854;1239;61345;-73
2023/05/30 07:11:20;;;;;;;7.20;2.30;;;;;;;18.80;43.91;100926.91;220882;1236;61415;-73
2023/05/30 07:16:12;;;;;;;3.40;1.60;;;;;;;18.93;43.64;100929.23;221066;1235;61247;-72
2023/05/30 07:21:05;;;;;;;6.00;1.90;;;;;;;19.24;42.40;100929.61;221086;1239;66865;-73
2023/05/30 07:25:57;;;;;;;6.80;3.10;;;;;;;20.18;41.07;100928.56;220772;1237;61263;-73
2023/05/30 07:30:49;;;;;;;6.00;2.30;;;;;;;20.87;40.54;100926.80;220930;1239;61360;-72
2023/05/30 07:35:41;;;;;;;4.10;2.00;;;;;;;23.27;38.31;100923.77;221015;1235;61440;-74
2023/05/30 07:40:32;;;;;;;5.00;2.20;;;;;;;24.50;36.57;100922.92;221145;1239;74136;-74
2023/05/30 07:45:24;;;;;;;4.10;2.40;;;;;;;27.12;33.55;100917.32;221051;1237;61267;-74
2023/05/30 07:50:16;;;;;;;4.20;2.00;;;;;;;29.92;30.94;100910.91;221162;1237;61325;-73
2023/05/30 07:55:07;;;;;;;4.10;2.10;;;;;;;29.53;30.04;100914.11;220975;1235;71554;-74
2023/05/30 07:59:59;;;;;;;5.00;2.20;;;;;;;28.63;29.85;100920.39;220993;1239;61357;-73
2023/05/30 08:04:51;;;;;;;4.80;3.00;;;;;;;28.03;30.10;100924.23;221146;1235;61266;-73
2023/05/30 08:09:43;;;;;;;4.90;2.70;;;;;;;26.75;31.02;100920.64;221027;1234;61125;-73
2023/05/30 08:14:35;;;;;;;4.90;2.70;;;;;;;28.51;29.31;100923.24;221024;1236;61339;-73
2023/05/30 08:19:31;;;;;;;2.60;2.10;;;;;;;30.89;27.63;100923.23;220951;1237;61747;-73
2023/05/30 08:24:23;;;;;;;8.10;2.50;;;;;;;32.57;26.16;100924.05;221066;1238;75512;-73
2023/05/30 08:29:14;;;;;;;7.70;3.10;;;;;;;32.76;25.76;100919.24;221084;1239;61275;-73
2023/05/30 08:34:07;;;;;;;6.20;2.80;;;;;;;30.38;26.71;100924.81;221037;1235;62044;-74
2023/05/30 08:38:58;;;;;;;6.70;2.60;;;;;;;30.62;26.10;100926.76;220842;1239;70770;-73
2023/05/30 08:44:05;;;;;;;5.00;2.50;;;;;;;32.72;24.24;100925.11;221069;1235;62222;-73
2023/05/30 08:48:57;;;;;;;4.50;2.30;;;;;;;34.12;22.74;100923.75;221046;1236;61265;-73
2023/05/30 08:53:54;;;;;;;3.30;2.30;;;;;;;33.67;23.42;100923.21;221129;1237;61321;-74
2023/05/30 08:58:50;;;;;;;5.10;2.20;;;;;;;30.67;24.76;100935.70;221021;1237;67664;-74
2023/05/30 09:03:42;;;;;;;4.90;2.30;;;;;;;29.15;25.34;100939.86;220985;1239;61258;-74
2023/05/30 09:08:36;;;;;;;4.00;2.10;;;;;;;27.85;26.28;100939.10;220810;1239;61327;-74
2023/05/30 09:13:28;;;;;;;2.90;1.80;;;;;;;27.00;26.89;100946.11;220817;1239;70944;-74
2023/05/30 09:18:19;;;;;;;3.10;2.20;;;;;;;26.05;28.19;100948.31;221157;1236;61263;-74
2023/05/30 09:23:11;;;;;;;5.40;2.40;;;;;;;26.63;27.37;100944.83;220856;1235;61269;-74
2023/05/30 09:28:03;;;;;;;6.20;2.40;;;;;;;27.55;27.00;100949.45;221052;1235;61328;-74
2023/05/30 09:33:04;;;;;;;5.90;2.20;;;;;;;28.97;25.89;100949.66;221078;1237;61357;-75
2023/05/30 09:37:56;;;;;;;3.30;2.50;;;;;;;30.32;24.82;100945.49;221037;1236;61248;-74
2023/05/30 09:42:51;;;;;;;3.00;2.30;;;;;;;32.36;23.28;100941.30;220880;1235;61198;-74
2023/05/30 09:47:44;;;;;;;3.20;2.20;;;;;;;33.73;22.22;100941.13;220979;1240;73564;-75
2023/05/30 09:52:37;;;;;;;3.10;1.80;;;;;;;33.87;21.85;100939.71;221098;1235;61272;-74
2023/05/30 09:57:29;;;;;;;2.40;1.90;;;;;;;34.77;21.34;100937.11;221011;1240;61275;-75
2023/05/30 10:02:22;;;;;;;3.90;2.30;;;;;;;35.29;21.35;100939.70;220990;1240;61267;-76
2023/05/30 10:07:15;;;;;;;4.40;2.60;;;;;;;35.39;21.34;100940.05;221397;1237;61400;-75
2023/05/30 10:12:08;;;;;;;4.30;2.50;;;;;;;34.92;21.47;100936.64;221025;1240;61240;-74
2023/05/30 10:17:04;;;;;;;3.80;2.60;;;;;;;35.13;20.64;100942.98;220862;1235;61249;-75
2023/05/30 10:21:56;;;;;;;2.40;1.70;;;;;;;35.30;20.63;100947.02;220812;1235;67191;-75
2023/05/30 10:26:55;;;;;;;4.10;2.30;;;;;;;35.21;20.42;100943.73;220852;1238;61134;-75
2023/05/30 10:31:49;;;;;;;5.60;2.60;;;;;;;35.46;20.64;100944.94;220921;1239;75370;-75
2023/05/30 10:36:43;;;;;;;3.70;2.10;;;;;;;35.29;20.10;100947.96;221011;1240;73923;-75
2023/05/30 10:42:03;;;;;;;2.70;2.00;;;;;;;34.96;19.61;100948.70;220939;1235;140367;-75
2023/05/30 10:47:14;;;;;;;3.10;2.30;;;;;;;34.65;20.00;100951.23;220951;1239;67936;-74
2023/05/30 10:52:07;;;;;;;5.30;2.20;;;;;;;34.45;19.78;100950.80;220991;1237;61245;-75
2023/05/30 10:57:20;;;;;;;2.40;2.10;;;;;;;34.00;20.16;100952.36;220844;1239;75379;-75
2023/05/30 11:02:17;;;;;;;3.00;2.10;;;;;;;33.08;20.80;100938.08;221132;1239;71554;-75
2023/05/30 11:07:11;;;;;;;5.70;2.60;;;;;;;31.30;21.99;100944.73;221037;1239;61341;-75
2023/05/30 11:12:03;;;;;;;3.50;2.00;;;;;;;29.87;23.10;100946.81;221146;1240;66996;-76
2023/05/30 11:16:54;;;;;;;6.40;3.00;;;;;;;28.83;22.45;100954.70;221062;1237;61186;-74
2023/05/30 11:22:03;;;;;;;1.80;1.60;;;;;;;27.99;23.14;100954.91;221088;1238;74336;-74
2023/05/30 11:27:13;;;;;;;2.30;1.90;;;;;;;27.51;22.40;100952.38;221115;1236;73391;-74
2023/05/30 11:32:08;;;;;;;2.50;2.00;;;;;;;27.05;23.14;100946.98;221135;1235;61555;-74
2023/05/30 11:37:00;;;;;;;3.10;2.20;;;;;;;27.01;24.41;100949.98;221085;1240;68318;-74
2023/05/30 11:41:53;;;;;;;4.60;2.00;;;;;;;27.10;25.24;100948.13;221121;1235;61396;-74
2023/05/30 11:47:04;;;;;;;2.90;1.80;;;;;;;27.17;24.78;100952.80;221140;1239;61531;-74
2023/05/30 11:51:56;;;;;;;3.90;2.20;;;;;;;27.07;23.85;100941.89;221097;1239;73382;-74
2023/05/30 11:56:50;;;;;;;1.90;1.80;;;;;;;27.04;23.54;100940.96;221108;1235;61348;-74
2023/05/30 12:01:50;;;;;;;4.40;1.90;;;;;;;27.00;23.52;100939.90;220968;1239;67589;-74
2023/05/30 12:06:45;;;;;;;4.10;2.10;;;;;;;26.90;22.58;100944.11;221044;1235;61203;-75
2023/05/30 12:11:37;;;;;;;4.90;1.70;;;;;;;26.85;23.12;100947.39;220906;1235;75359;-74
2023/05/30 12:16:29;;;;;;;3.30;2.10;;;;;;;26.99;24.61;100949.90;220960;1236;61306;-75
2023/05/30 12:21:21;;;;;;;5.50;1.90;;;;;;;27.16;23.71;100941.42;220849;1235;61329;-75
2023/05/30 12:26:17;;;;;;;5.30;1.50;;;;;;;26.99;23.33;100946.70;221012;1235;61723;-75
2023/05/30 12:31:20;;;;;;;6.30;1.80;;;;;;;26.90;24.01;100952.30;221033;1235;61223;-74
2023/05/30 12:36:12;;;;;;;2.70;1.40;;;;;;;26.81;23.13;100940.46;220963;1235;67908;-75
2023/05/30 12:41:27;;;;;;;2.30;1.80;;;;;;;26.76;24.04;100945.14;220942;1235;61266;-74
2023/05/30 12:46:18;;;;;;;3.70;2.00;;;;;;;26.73;22.92;100942.08;220870;1235;73703;-75
2023/05/30 12:51:11;;;;;;;3.30;1.70;;;;;;;26.86;23.34;100944.45;220858;1237;61274;-74
2023/05/30 12:56:02;;;;;;;3.90;2.20;;;;;;;27.03;23.98;100945.45;220963;1239;61364;-75
2023/05/30 13:00:54;;;;;;;3.80;1.90;;;;;;;27.09;23.80;100949.98;220976;1235;61200;-74
2023/05/30 13:05:47;;;;;;;2.80;1.60;;;;;;;26.94;23.81;100949.61;220871;1240;61227;-74
2023/05/30 13:10:39;;;;;;;2.70;1.80;;;;;;;26.75;23.50;100952.45;220942;1235;61695;-74
2023/05/30 13:15:33;;;;;;;4.20;1.70;;;;;;;26.60;23.25;100947.61;220934;1239;61780;-74
2023/05/30 13:20:24;;;;;;;6.60;2.20;;;;;;;26.61;22.46;100953.82;220945;1239;61251;-75
2023/05/30 13:25:16;;;;;;;4.80;2.30;;;;;;;26.56;21.71;100953.32;220870;1239;61258;-74
2023/05/30 13:30:10;;;;;;;2.20;1.80;;;;;;;26.40;22.28;100954.80;220988;1239;61302;-74
2023/05/30 13:35:01;;;;;;;4.10;1.70;;;;;;;26.48;22.61;100957.23;221019;1235;72520;-75
2023/05/30 13:39:53;;;;;;;3.00;2.00;;;;;;;26.56;23.04;100957.23;220902;1235;61386;-75
2023/05/30 13:44:44;;;;;;;1.90;1.70;;;;;;;26.42;22.97;100953.25;220993;1235;61236;-74
2023/05/30 13:49:37;;;;;;;2.60;1.60;;;;;;;26.52;23.85;100945.52;220922;1235;61239;-74
2023/05/30 13:54:29;;;;;;;2.60;1.80;;;;;;;26.51;23.56;100948.95;220873;1239;61122;-75
2023/05/30 13:59:21;;;;;;;5.10;2.00;;;;;;;26.50;23.96;100950.55;220837;1235;61243;-75
2023/05/30 14:04:13;;;;;;;2.00;1.40;;;;;;;26.41;22.94;100953.48;220985;1239;61291;-74
2023/05/30 14:09:05;;;;;;;2.20;1.80;;;;;;;26.12;23.26;100953.52;220916;1235;61342;-74
2023/05/30 14:13:58;;;;;;;5.00;1.70;;;;;;;26.17;23.27;100948.13;220872;1235;61303;-75
2023/05/30 14:18:49;;;;;;;2.60;1.70;;;;;;;26.21;23.63;100947.27;220834;1235;61294;-74
2023/05/30 14:23:42;;;;;;;5.40;2.10;;;;;;;26.01;23.04;100947.77;220921;1239;61850;-74
2023/05/30 14:29:13;;;;;;;2.40;1.70;;;;;;;26.07;23.50;100954.08;220911;1239;61290;-74
2023/05/30 14:34:37;;;;;;;3.40;1.90;;;;;;;26.11;23.23;100946.29;219682;1244;61705;-73
2023/05/30 14:52:31;;;;;;;3.30;1.60;;;;;;;25.98;23.73;100946.30;216686;1256;75476;-74
2023/05/30 14:57:28;;;;;;;7.50;2.30;;;;;;;25.80;24.11;100942.77;217504;1254;75228;-74
2023/05/30 15:03:01;;;;;;;3.20;2.00;;;;;;;25.65;23.94;100940.05;217705;1254;61299;-74
2023/05/30 15:08:08;;;;;;;3.20;1.70;;;;;;;25.52;24.11;100937.98;217635;1248;68016;-75
2023/05/30 15:13:16;;;;;;;4.80;2.10;;;;;;;25.50;24.67;100940.17;219010;1251;61331;-74
2023/05/30 15:18:32;;;;;;;4.90;2.40;;;;;;;25.39;24.69;100931.21;218535;1248;74684;-74
2023/05/30 15:23:53;;;;;;;6.90;1.60;;;;;;;25.45;25.36;100931.16;220629;1235;73350;-75
2023/05/30 15:34:51;;;;;;;6.70;2.20;;;;;;;25.04;25.32;100930.10;220871;1236;67869;-75
2023/05/30 15:40:00;;;;;;;6.10;2.00;;;;;;;24.90;25.57;100929.60;220807;1237;61219;-75
2023/05/30 15:45:03;;;;;;;2.60;1.30;;;;;;;24.90;25.35;100932.45;220825;1235;74173;-74
2023/05/30 15:49:59;;;;;;;1.60;1.30;;;;;;;24.87;25.24;100931.50;220824;1239;72469;-74
2023/05/30 15:54:51;;;;;;;3.30;1.50;;;;;;;24.73;25.31;100927.95;220949;1238;61225;-74
2023/05/30 15:59:46;;;;;;;1.70;1.20;;;;;;;24.68;25.74;100926.19;220928;1235;61604;-75
2023/05/30 16:05:00;;;;;;;5.20;1.80;;;;;;;24.59;25.75;100925.31;220907;1239;61721;-74
2023/05/30 16:09:56;;;;;;;2.20;1.40;;;;;;;24.43;25.65;100929.44;220858;1239;66276;-74
2023/05/30 16:15:29;;;;;;;1.80;1.50;;;;;;;24.36;26.07;100935.35;220934;1235;61366;-75
2023/05/30 16:20:42;;;;;;;2.40;1.50;;;;;;;24.30;26.14;100940.54;220871;1235;74434;-74
2023/05/30 16:26:03;;;;;;;4.60;1.40;;;;;;;24.10;26.37;100946.23;220811;1235;72776;-75
2023/05/30 16:31:09;;;;;;;2.60;1.70;;;;;;;23.95;26.42;100948.52;220814;1235;61260;-74
2023/05/30 16:41:22;;;;;;;6.60;1.50;;;;;;;23.53;27.01;100960.52;220763;1235;61275;-74
2023/05/30 16:46:26;;;;;;;3.00;1.10;;;;;;;23.44;26.86;100966.64;220782;1236;73826;-74
2023/05/30 16:51:34;;;;;;;2.70;1.30;;;;;;;23.26;26.62;100971.83;220908;1239;71724;-74
2023/05/30 16:56:38;;;;;;;3.50;1.50;;;;;;;23.17;26.79;100969.11;220898;1235;61304;-75
2023/05/30 17:01:58;;;;;;;4.00;2.40;;;;;;;23.05;27.12;100968.58;220913;1236;67286;-74
2023/05/30 17:07:10;;;;;;;2.50;1.20;;;;;;;22.93;27.77;100968.77;220904;1235;61310;-74
2023/05/30 17:12:28;;;;;;;2.50;1.40;;;;;;;22.81;27.73;100979.91;220883;1235;74585;-74
2023/05/30 17:17:44;;;;;;;2.10;1.60;;;;;;;22.66;27.99;100985.81;220816;1239;73223;-74
2023/05/30 17:22:53;;;;;;;2.90;1.70;;;;;;;22.51;28.13;100993.48;220887;1236;61263;-74
2023/05/30 17:28:10;;;;;;;4.10;1.60;;;;;;;22.28;28.39;101002.92;220925;1235;68425;-74
2023/05/30 17:33:14;;;;;;;4.50;1.90;;;;;;;22.11;28.37;101002.84;220766;1237;61247;-74
2023/05/30 17:38:09;;;;;;;3.30;1.90;;;;;;;21.95;28.70;101003.96;220963;1235;75431;-74
2023/05/30 17:43:23;;;;;;;3.10;1.70;;;;;;;21.81;29.18;101003.96;220995;1236;61259;-74
2023/05/30 17:48:16;;;;;;;5.20;2.00;;;;;;;21.54;29.39;101009.55;220853;1235;61925;-74
2023/05/30 17:53:08;;;;;;;2.30;1.70;;;;;;;21.37;29.76;101012.05;220557;1236;61342;-74
2023/05/30 17:58:15;;;;;;;3.40;2.00;;;;;;;21.19;30.41;101014.02;220606;1235;61370;-74
2023/05/30 18:03:09;;;;;;;4.20;1.90;;;;;;;20.99;30.66;101014.27;220768;1236;74217;-74
2023/05/30 18:08:16;;;;;;;2.20;1.80;;;;;;;20.79;31.48;101019.83;220899;1239;61339;-74
2023/05/30 18:13:14;;;;;;;7.10;2.50;;;;;;;20.58;31.67;101024.98;220942;1239;61253;-74
2023/05/30 18:18:21;;;;;;;8.30;2.40;;;;;;;20.40;32.39;101033.06;221056;1235;65701;-74
2023/05/30 18:23:22;;;;;;;12.30;2.60;;;;;;;20.15;33.65;101037.39;220916;1236;61210;-74
2023/05/30 18:28:27;;;;;;;4.60;1.80;;;;;;;19.88;34.50;101042.41;221003;1239;75334;-74
2023/05/30 18:33:27;;;;;;;3.20;1.90;;;;;;;19.60;34.77;101045.98;220951;1236;72712;-74
2023/05/30 18:38:18;;;;;;;2.70;2.20;;;;;;;19.37;35.53;101047.53;220966;1235;61329;-74
2023/05/30 18:43:14;;;;;;;5.00;2.10;;;;;;;19.15;36.56;101053.64;220788;1235;67229;-74
2023/05/30 18:48:15;;;;;;;3.80;1.70;;;;;;;18.90;36.71;101056.77;220919;1235;61231;-74
2023/05/30 18:53:12;;;;;;;2.80;2.30;;;;;;;18.71;36.99;101064.33;220940;1235;76201;-74
2023/05/30 18:58:06;;;;;;;5.00;2.10;;;;;;;18.54;38.21;101072.41;220821;1235;73215;-74
2023/05/30 19:02:58;;;;;;;4.50;2.60;;;;;;;18.27;38.01;101070.58;220949;1235;61395;-73
2023/05/30 19:07:55;;;;;;;3.10;2.00;;;;;;;18.04;38.45;101079.71;221000;1235;61418;-73
2023/05/30 19:12:47;;;;;;;5.30;2.40;;;;;;;17.85;39.36;101091.93;220984;1235;61198;-74
2023/05/30 19:17:39;;;;;;;2.40;1.70;;;;;;;17.64;39.35;101096.98;220908;1236;61259;-74
2023/05/30 19:22:31;;;;;;;6.60;2.40;;;;;;;17.42;39.75;101100.77;220958;1235;61291;-74
2023/05/30 19:27:22;;;;;;;10.00;2.90;;;;;;;17.22;40.26;101105.44;220989;1236;61566;-73
2023/05/30 19:32:14;;;;;;;14.60;3.30;;;;;;;17.06;40.52;101111.09;220966;1236;61260;-74
2023/05/30 19:37:05;;;;;;;8.40;3.00;;;;;;;16.92;41.45;101116.40;220781;1239;61286;-74
2023/05/30 19:41:57;;;;;;;4.00;2.50;;;;;;;16.80;42.14;101115.70;220932;1239;61257;-74
2023/05/30 19:46:51;;;;;;;4.30;2.90;;;;;;;16.67;42.62;101118.70;220912;1237;75257;-74
2023/05/30 19:51:50;;;;;;;5.20;2.70;;;;;;;16.52;42.88;101118.36;220975;1235;73269;-74
2023/05/30 19:56:45;;;;;;;10.60;4.40;;;;;;;16.36;43.14;101124.15;221002;1239;61326;-73
2023/05/30 20:01:40;;;;;;;5.80;3.00;;;;;;;16.20;43.23;101133.77;221076;1236;61229;-74
2023/05/30 20:06:47;;;;;;;5.90;2.70;;;;;;;16.07;44.07;101136.02;220907;1237;61198;-74
2023/05/30 20:11:40;;;;;;;14.00;4.30;;;;;;;15.94;44.42;101138.11;221044;1237;73839;-74
2023/05/30 20:16:35;;;;;;;12.10;3.30;;;;;;;15.81;44.91;101134.08;221008;1238;72199;-74
2023/05/30 20:21:30;;;;;;;9.60;2.70;;;;;;;15.71;44.95;101138.91;221065;1234;61387;-74
2023/05/30 20:26:22;;;;;;;5.70;3.30;;;;;;;15.63;45.35;101142.91;221064;1235;67270;-74
2023/05/30 20:31:13;;;;;;;2.80;2.40;;;;;;;15.53;45.88;101145.15;221139;1235;61339;-73
2023/05/30 20:36:05;;;;;;;5.10;2.70;;;;;;;15.43;46.16;101142.50;220934;1235;61450;-74
2023/05/30 20:41:01;;;;;;;8.00;3.50;;;;;;;15.33;47.59;101144.55;220921;1236;61311;-74
2023/05/30 20:45:53;;;;;;;5.50;2.80;;;;;;;15.18;48.12;101147.10;221062;1239;74345;-74
2023/05/30 20:50:45;;;;;;;6.10;3.50;;;;;;;15.05;48.58;101153.67;221061;1237;61237;-74
2023/05/30 20:55:39;;;;;;;7.50;3.30;;;;;;;14.92;49.63;101155.33;221186;1235;61234;-74
2023/05/30 21:00:33;;;;;;;7.60;3.40;;;;;;;14.84;50.01;101160.70;220943;1235;72872;-74
2023/05/30 21:05:32;;;;;;;11.20;4.60;;;;;;;14.79;50.50;101164.34;220902;1235;61280;-74
2023/05/30 21:10:27;;;;;;;10.90;4.80;;;;;;;14.75;51.13;101168.68;221142;1235;66745;-75
2023/05/30 21:15:35;;;;;;;10.20;3.90;;;;;;;14.70;51.34;101173.35;221136;1235;61269;-74
2023/05/30 21:20:32;;;;;;;7.10;4.00;;;;;;;14.62;51.30;101176.24;220903;1239;73836;-74
2023/05/30 21:25:25;;;;;;;6.30;3.80;;;;;;;14.56;51.81;101180.72;221107;1236;72494;-73
2023/05/30 21:30:24;;;;;;;5.90;3.70;;;;;;;14.47;52.18;101184.99;221122;1239;61538;-74
2023/05/30 21:35:26;;;;;;;5.20;3.10;;;;;;;14.37;52.16;101189.45;221101;1235;67327;-74
2023/05/30 21:40:28;;;;;;;6.10;2.90;;;;;;;14.29;52.42;101188.67;220914;1235;61243;-74
2023/05/30 21:45:23;;;;;;;6.40;3.70;;;;;;;14.28;52.31;101193.71;221090;1235;61317;-74
2023/05/30 21:50:14;;;;;;;4.30;3.10;;;;;;;14.24;52.15;101193.16;221088;1236;71439;-73
2023/05/30 21:55:09;;;;;;;5.40;2.90;;;;;;;14.24;52.33;101198.56;221066;1238;61244;-74
2023/05/30 22:00:00;;;;;;;5.50;2.70;;;;;;;14.23;51.92;101201.86;221052;1237;61244;-74
2023/05/30 22:05:04;;;;;;;5.00;2.90;;;;;;;14.24;51.71;101201.19;221111;1235;61349;-74
2023/05/30 22:09:58;;;;;;;4.80;3.00;;;;;;;14.22;52.30;101209.70;220938;1239;66860;-74
2023/05/30 22:14:50;;;;;;;6.20;2.70;;;;;;;14.13;52.59;101213.09;220935;1235;61383;-73
2023/05/30 22:19:41;;;;;;;7.20;2.90;;;;;;;14.10;51.46;101219.70;221226;1239;61437;-74
2023/05/30 22:24:35;;;;;;;7.30;2.70;;;;;;;14.12;52.15;101217.98;221042;1239;61213;-74
2023/05/30 22:29:27;;;;;;;3.30;2.80;;;;;;;14.04;51.99;101216.31;221056;1239;74471;-74
2023/05/30 22:34:19;;;;;;;8.60;4.00;;;;;;;14.04;51.33;101221.20;220887;1235;61693;-74
2023/05/30 22:39:11;;;;;;;4.60;3.10;;;;;;;14.03;51.82;101220.14;220969;1239;124830;-74
2023/05/30 22:44:03;;;;;;;4.10;2.90;;;;;;;13.94;52.20;101229.63;221033;1235;61314;-74
2023/05/30 22:48:54;;;;;;;5.70;2.90;;;;;;;13.86;51.93;101231.10;221157;1237;61291;-73
2023/05/30 22:53:46;;;;;;;11.90;3.60;;;;;;;13.80;52.82;101231.55;221054;1235;61253;-75
2023/05/30 22:58:38;;;;;;;5.10;2.40;;;;;;;13.69;52.55;101232.13;220908;1239;61348;-74
2023/05/30 23:03:29;;;;;;;8.00;3.10;;;;;;;13.60;52.98;101236.54;220982;1234;67802;-74